Etihad Airways Virtual Airport Information Service

Vienna International Airport

ICAO: LOWW Country: Austria
Latitude: 48.1103 Longitude: 16.5697
Latest Arrival : UAE125 (OMDB-LOWW) Latest Departure : UAE126 (LOWW-OMDB)


WX CaptureLIVE
Data provided by noaa.gov | Recorded at 01:50:04

METAR : LOWW 020120Z 25006KT 210V270 9999 FEW042 SCT048 09/03 Q0999 NOSIG

TAF : LOWW 012315Z 0200/0306 19007KT CAVOK TX08/0210Z TN02/0306Z BECMG 0208/0210 27008KT TEMPO 0210/0218 -RA BECMG 0222/0224 32012KT


Runway Data for LOWW
Data provided by openaviationdata.com

Runway ID Mag Var Hdg Length Elevation Surface ILS Freq ILS Id ILS Slope

Vienna International Airport, Austria
Use only for reference purposes